createdAt,value
2018-01-02T00:00:53.638Z,0.60
2018-01-02T00:03:21.216Z,1.50
2018-01-02T00:05:49.541Z,0.53
2018-01-02T00:08:17.124Z,2.53
2018-01-02T00:10:44.690Z,0.57
2018-01-02T00:13:12.244Z,0.50
2018-01-02T00:15:40.651Z,0.60
2018-01-02T00:18:08.982Z,0.50
2018-01-02T00:20:36.561Z,0.70
2018-01-02T00:23:04.122Z,1.10
2018-01-02T00:25:31.653Z,0.37
2018-01-02T00:27:59.175Z,0.30
2018-01-02T00:30:27.521Z,0.20
2018-01-02T00:32:55.083Z,0.67
2018-01-02T00:35:22.673Z,0.30
2018-01-02T00:37:50.185Z,0.40
2018-01-02T00:40:17.703Z,0.30
2018-01-02T00:42:46.006Z,0.90
2018-01-02T00:45:13.549Z,0.30
2018-01-02T00:47:41.846Z,0.60
2018-01-02T00:50:09.412Z,0.63
2018-01-02T00:52:36.949Z,0.40
2018-01-02T00:55:05.226Z,0.40
2018-01-02T00:57:33.570Z,0.63
2018-01-02T01:00:01.124Z,0.60
2018-01-02T01:02:28.665Z,0.67
2018-01-02T01:04:56.187Z,0.63
2018-01-02T01:07:24.494Z,0.60
2018-01-02T01:09:52.010Z,0.80
2018-01-02T01:12:19.526Z,0.40
2018-01-02T01:14:47.106Z,0.70
2018-01-02T01:17:14.625Z,0.50
2018-01-02T01:19:42.162Z,0.90
2018-01-02T01:22:10.454Z,0.80
2018-01-02T01:24:38.748Z,0.80
2018-01-02T01:27:06.266Z,0.60
2018-01-02T01:29:33.805Z,0.70
2018-01-02T01:32:01.321Z,0.50
2018-01-02T01:34:29.621Z,0.40
2018-01-02T01:36:57.142Z,0.90
2018-01-02T01:39:25.453Z,0.70
2018-01-02T01:41:52.962Z,0.63
2018-01-02T01:44:20.513Z,0.80
2018-01-02T01:46:48.033Z,0.70
2018-01-02T01:49:15.555Z,0.90
2018-01-02T01:51:43.097Z,0.80
2018-01-02T01:54:10.618Z,0.80
2018-01-02T01:56:38.158Z,0.87
2018-01-02T01:59:06.433Z,0.83
2018-01-02T02:01:34.730Z,1.00
2018-01-02T02:04:02.242Z,1.10
2018-01-02T02:06:29.777Z,0.80
2018-01-02T02:08:57.297Z,0.70
2018-01-02T02:11:25.605Z,0.87
2018-01-02T02:13:53.123Z,0.67
2018-01-02T02:16:20.666Z,0.97
2018-01-02T02:18:48.182Z,0.83
2018-01-02T02:21:15.710Z,0.60
2018-01-02T02:23:44.006Z,0.70
2018-01-02T02:26:11.521Z,0.70
2018-01-02T02:28:39.055Z,0.63
2018-01-02T02:31:06.573Z,0.60
2018-01-02T02:33:34.872Z,0.50
2018-01-02T02:36:02.387Z,0.60
2018-01-02T02:38:29.928Z,0.60
2018-01-02T02:41:07.303Z,0.47
2018-01-02T02:43:34.845Z,0.67
2018-01-02T02:46:02.370Z,0.50
2018-01-02T02:48:29.893Z,0.70
2018-01-02T02:50:57.430Z,0.70
2018-01-02T02:53:24.953Z,0.87
2018-01-02T02:55:52.486Z,0.50
2018-01-02T02:58:20.015Z,0.40
2018-01-02T03:00:48.411Z,0.50
2018-01-02T03:03:15.929Z,0.40
2018-01-02T03:05:43.469Z,0.53
2018-01-02T03:08:11.011Z,0.70
2018-01-02T03:10:38.556Z,0.40
2018-01-02T03:13:06.079Z,0.30
2018-01-02T03:15:34.388Z,0.53
2018-01-02T03:18:01.905Z,0.43
2018-01-02T03:20:29.421Z,0.30
2018-01-02T03:22:56.958Z,0.43
2018-01-02T03:25:25.233Z,0.40
2018-01-02T03:27:53.535Z,0.57
2018-01-02T03:30:21.053Z,0.50
2018-01-02T03:32:49.355Z,0.60
2018-01-02T03:35:16.876Z,0.40
2018-01-02T03:37:44.405Z,0.40
2018-01-02T03:40:11.923Z,0.40
2018-01-02T03:42:39.478Z,0.40
2018-01-02T03:45:07.765Z,0.30
2018-01-02T03:47:36.079Z,0.40
2018-01-02T03:50:03.594Z,0.37
2018-01-02T03:52:31.885Z,0.60
2018-01-02T03:55:00.197Z,0.87
2018-01-02T03:57:27.717Z,0.50
2018-01-02T03:59:56.017Z,0.23
2018-01-02T04:02:23.540Z,0.40
2018-01-02T04:04:51.072Z,0.40
2018-01-02T04:07:18.599Z,0.43
2018-01-02T04:09:46.130Z,0.63
2018-01-02T04:12:13.650Z,0.50
2018-01-02T04:14:41.202Z,0.50
2018-01-02T04:17:08.727Z,0.60
2018-01-02T04:19:37.005Z,0.67
2018-01-02T04:22:05.305Z,0.40
2018-01-02T04:24:32.820Z,0.43
2018-01-02T04:27:00.362Z,0.50
2018-01-02T04:29:27.878Z,0.50
2018-01-02T04:31:55.417Z,0.70
2018-01-02T04:34:23.702Z,0.87
2018-01-02T04:36:52.012Z,0.83
2018-01-02T04:39:19.534Z,0.40
2018-01-02T04:41:47.860Z,0.77
2018-01-02T04:44:15.378Z,0.90
2018-01-02T04:46:43.670Z,0.40
2018-01-02T04:49:11.966Z,0.60
2018-01-02T04:51:39.487Z,0.50
2018-01-02T04:54:07.013Z,0.67
2018-01-02T04:56:34.538Z,0.77
2018-01-02T04:59:02.074Z,0.80
2018-01-02T05:01:30.371Z,0.87
2018-01-02T05:03:58.676Z,0.83
2018-01-02T05:06:26.190Z,1.00
2018-01-02T05:08:53.710Z,1.17
2018-01-02T05:11:21.266Z,1.10
2018-01-02T05:13:48.786Z,0.90
2018-01-02T05:16:17.090Z,1.50
2018-01-02T05:18:44.605Z,1.30
2018-01-02T05:21:12.154Z,1.33
2018-01-02T05:23:39.674Z,1.27
2018-01-02T05:26:07.212Z,1.20
2018-01-02T05:28:35.493Z,1.57
2018-01-02T05:31:03.813Z,1.63
2018-01-02T05:33:31.335Z,2.30
2018-01-02T05:35:59.626Z,1.77
2018-01-02T05:38:27.163Z,1.30
2018-01-02T05:40:55.445Z,1.77
2018-01-02T05:43:23.741Z,1.13
2018-01-02T05:45:51.254Z,1.30
2018-01-02T05:48:18.795Z,1.87
2018-01-02T05:50:46.329Z,1.67
2018-01-02T05:53:13.861Z,1.50
2018-01-02T05:55:42.147Z,2.90
2018-01-02T05:58:10.455Z,1.70
2018-01-02T06:00:37.970Z,1.90
2018-01-02T06:03:05.489Z,2.00
2018-01-02T06:05:33.025Z,3.90
2018-01-02T06:08:00.542Z,3.03
2018-01-02T06:10:28.073Z,2.53
2018-01-02T06:12:55.598Z,2.60
2018-01-02T06:15:23.902Z,2.07
2018-01-02T06:17:51.413Z,2.20
2018-01-02T06:20:18.990Z,3.80
2018-01-02T06:22:47.274Z,2.60
2018-01-02T06:25:15.589Z,2.80
2018-01-02T06:27:43.105Z,1.50
2018-01-02T06:30:11.388Z,1.50
2018-01-02T06:32:39.686Z,1.60
2018-01-02T06:35:07.210Z,1.40
2018-01-02T06:37:34.749Z,2.00
2018-01-02T06:40:02.266Z,1.50
2018-01-02T06:42:30.731Z,1.90
2018-01-02T06:44:59.010Z,1.60
2018-01-02T06:47:27.310Z,1.60
2018-01-02T06:49:54.829Z,1.50
2018-01-02T06:52:22.369Z,1.50
2018-01-02T06:54:49.881Z,1.90
2018-01-02T06:57:17.401Z,2.83
2018-01-02T06:59:44.938Z,2.53
2018-01-02T07:02:12.454Z,1.43
2018-01-02T07:04:40.752Z,1.80
2018-01-02T07:07:08.274Z,2.17
2018-01-02T07:09:35.809Z,5.90
2018-01-02T07:12:03.329Z,2.00
2018-01-02T07:14:30.865Z,2.93
2018-01-02T07:16:59.149Z,1.43
2018-01-02T07:19:27.458Z,18.23
2018-01-02T07:21:54.982Z,2.80
2018-01-02T07:24:22.545Z,1.77
2018-01-02T07:26:50.825Z,1.60
2018-01-02T07:29:18.349Z,2.23
2018-01-02T07:31:45.884Z,1.20
2018-01-02T07:34:13.398Z,1.70
2018-01-02T07:36:41.704Z,1.63
2018-01-02T07:39:09.254Z,2.30
2018-01-02T07:41:36.794Z,1.43
2018-01-02T07:44:05.073Z,1.80
2018-01-02T07:46:33.373Z,1.93
2018-01-02T07:49:00.893Z,2.50
2018-01-02T07:51:28.413Z,1.80
2018-01-02T07:53:55.956Z,1.80
2018-01-02T07:56:24.321Z,1.50
2018-01-02T07:58:51.863Z,1.60
2018-01-02T08:01:20.150Z,1.90
2018-01-02T08:03:48.457Z,1.83
2018-01-02T08:06:15.974Z,1.70
2018-01-02T08:08:44.285Z,1.40
2018-01-02T08:11:11.798Z,1.60
2018-01-02T08:13:39.341Z,1.60
2018-01-02T08:16:06.867Z,1.57
2018-01-02T08:18:34.512Z,1.90
2018-01-02T08:21:02.010Z,2.03
2018-01-02T08:23:29.518Z,2.23
2018-01-02T08:25:57.827Z,2.07
2018-01-02T08:28:25.343Z,2.33
2018-01-02T08:30:52.877Z,1.60
2018-01-02T08:33:20.398Z,1.83
2018-01-02T08:35:47.938Z,2.10
2018-01-02T08:38:16.226Z,1.50
2018-01-02T08:40:44.525Z,1.60
2018-01-02T08:43:12.047Z,1.43
2018-01-02T08:45:40.359Z,1.50
2018-01-02T08:48:07.897Z,1.53
2018-01-02T08:50:36.202Z,1.50
2018-01-02T08:53:03.714Z,1.40
2018-01-02T08:55:31.258Z,1.37
2018-01-02T08:57:58.777Z,1.70
2018-01-02T09:00:26.297Z,1.63
2018-01-02T09:02:53.841Z,3.93
2018-01-02T09:05:21.359Z,4.17
2018-01-02T09:07:48.893Z,3.70
2018-01-02T09:10:17.174Z,2.87
2018-01-02T09:12:48.465Z,2.20
2018-01-02T09:15:15.981Z,2.60
2018-01-02T09:17:44.287Z,2.40
2018-01-02T09:20:11.809Z,2.07
2018-01-02T09:22:40.114Z,1.97
2018-01-02T09:25:07.634Z,2.00
2018-01-02T09:27:35.169Z,1.70
2018-01-02T09:30:02.715Z,2.50
2018-01-02T09:32:30.274Z,2.13
2018-01-02T09:34:57.794Z,1.70
2018-01-02T09:37:26.078Z,1.77
2018-01-02T09:39:53.613Z,1.70
2018-01-02T09:42:21.135Z,1.37
2018-01-02T09:44:48.674Z,1.10
2018-01-02T09:47:16.192Z,1.80
2018-01-02T09:49:43.726Z,2.40
2018-01-02T09:52:11.237Z,2.10
2018-01-02T09:54:39.578Z,1.60
2018-01-02T09:57:07.094Z,1.67
2018-01-02T09:59:34.628Z,2.50
2018-01-02T10:02:02.913Z,1.20
2018-01-02T10:04:31.225Z,1.40
2018-01-02T10:06:58.741Z,1.73
2018-01-02T10:09:27.027Z,1.53
2018-01-02T10:11:55.322Z,1.80
2018-01-02T10:14:22.836Z,1.07
2018-01-02T10:16:50.374Z,1.07
2018-01-02T10:19:17.893Z,1.27
2018-01-02T10:21:45.433Z,1.07
2018-01-02T10:24:13.716Z,1.63
2018-01-02T10:26:42.031Z,1.00
2018-01-02T10:29:09.564Z,1.50
2018-01-02T10:31:37.846Z,2.67
2018-01-02T10:34:05.381Z,1.40
2018-01-02T10:36:32.910Z,1.07
2018-01-02T10:39:00.443Z,1.33
2018-01-02T10:41:27.962Z,1.27
2018-01-02T10:43:56.263Z,1.40
2018-01-02T10:46:24.314Z,1.90
2018-01-02T10:48:52.634Z,1.73
2018-01-02T10:51:20.154Z,1.80
2018-01-02T10:53:48.439Z,2.47
2018-01-02T10:56:16.743Z,2.03
2018-01-02T10:58:44.256Z,2.60
2018-01-02T11:01:17.405Z,2.43
2018-01-02T11:03:45.474Z,2.67
2018-01-02T11:06:14.379Z,2.60
2018-01-02T11:08:44.774Z,2.80
2018-01-02T11:11:18.095Z,2.00
2018-01-02T11:13:45.637Z,2.40
2018-01-02T11:16:13.162Z,2.07
2018-01-02T11:18:40.678Z,2.00
2018-01-02T11:21:08.222Z,2.63
2018-01-02T11:23:35.738Z,3.00
2018-01-02T11:26:03.253Z,1.87
2018-01-02T11:28:30.798Z,2.27
2018-01-02T11:30:58.318Z,1.90
2018-01-02T11:33:25.859Z,2.13
2018-01-02T11:35:53.382Z,1.47
2018-01-02T11:38:20.918Z,0.97
2018-01-02T11:40:48.440Z,2.50
2018-01-02T11:43:15.970Z,1.10
2018-01-02T11:45:43.495Z,1.33
2018-01-02T11:48:11.037Z,1.10
2018-01-02T11:50:38.549Z,1.53
2018-01-02T11:53:06.089Z,1.50
2018-01-02T11:55:34.379Z,1.43
2018-01-02T11:58:01.889Z,1.33
2018-01-02T12:00:29.472Z,1.50
2018-01-02T12:02:56.994Z,0.70
2018-01-02T12:05:24.598Z,1.37
2018-01-02T12:07:52.882Z,1.43
2018-01-02T12:10:21.186Z,2.10
2018-01-02T12:12:48.710Z,1.97
2018-01-02T12:15:16.250Z,2.83
2018-01-02T12:17:43.760Z,2.80
2018-01-02T12:20:11.291Z,3.47
2018-01-02T12:22:38.806Z,2.80
2018-01-02T12:25:06.344Z,2.70
2018-01-02T12:27:33.863Z,2.13
2018-01-02T12:30:01.387Z,3.13
2018-01-02T12:32:28.926Z,3.30
2018-01-02T12:34:56.441Z,6.10
2018-01-02T12:37:23.973Z,3.53
2018-01-02T12:39:51.486Z,3.73
2018-01-02T12:42:19.798Z,2.90
2018-01-02T12:44:47.318Z,2.87
2018-01-02T12:47:15.613Z,2.10
2018-01-02T12:49:43.128Z,2.63
2018-01-02T12:52:10.668Z,3.00
2018-01-02T12:54:38.178Z,2.53
2018-01-02T12:57:06.456Z,2.37
2018-01-02T12:59:34.758Z,2.20
2018-01-02T13:02:02.279Z,2.30
2018-01-02T13:04:30.588Z,2.90
2018-01-02T13:06:58.106Z,4.40
2018-01-02T13:09:25.642Z,2.70
2018-01-02T13:11:53.159Z,2.70
2018-01-02T13:14:20.715Z,2.03
2018-01-02T13:16:48.994Z,2.50
2018-01-02T13:19:17.301Z,2.57
2018-01-02T13:21:44.815Z,2.30
2018-01-02T13:24:12.349Z,2.67
2018-01-02T13:26:39.886Z,3.50
2018-01-02T13:29:07.407Z,2.30
2018-01-02T13:31:35.709Z,3.00
2018-01-02T13:34:03.231Z,2.30
2018-01-02T13:36:30.766Z,2.43
2018-01-02T13:38:58.274Z,2.87
2018-01-02T13:41:25.805Z,2.50
2018-01-02T13:43:53.323Z,2.10
2018-01-02T13:46:20.872Z,2.73
2018-01-02T13:48:48.387Z,2.83
2018-01-02T13:51:15.905Z,2.20
2018-01-02T13:53:43.442Z,2.03
2018-01-02T13:56:10.963Z,2.43
2018-01-02T13:58:38.508Z,3.27
2018-01-02T14:01:06.034Z,2.20
2018-01-02T14:03:33.577Z,3.00
2018-01-02T14:06:01.106Z,2.63
2018-01-02T14:08:28.645Z,3.10
2018-01-02T14:10:56.174Z,2.43
2018-01-02T14:13:23.710Z,3.03
2018-01-02T14:15:51.996Z,2.70
2018-01-02T14:18:19.584Z,2.93
2018-01-02T14:20:47.081Z,2.73
2018-01-02T14:23:14.606Z,3.23
2018-01-02T14:25:42.158Z,2.57
2018-01-02T14:28:09.688Z,2.73
2018-01-02T14:30:37.995Z,2.10
2018-01-02T14:33:05.518Z,2.30
2018-01-02T14:35:33.823Z,2.00
2018-01-02T14:38:01.345Z,3.20
2018-01-02T14:40:28.949Z,3.00
2018-01-02T14:42:56.441Z,2.17
2018-01-02T14:45:23.987Z,1.93
2018-01-02T14:47:51.507Z,1.37
2018-01-02T14:50:19.025Z,2.17
2018-01-02T14:52:46.566Z,1.67
2018-01-02T14:55:14.090Z,1.93
2018-01-02T14:57:41.630Z,2.13
2018-01-02T15:00:09.919Z,1.67
2018-01-02T15:02:38.287Z,1.63
2018-01-02T15:05:06.569Z,1.70
2018-01-02T15:07:34.872Z,1.80
2018-01-02T15:10:02.385Z,1.43
2018-01-02T15:12:29.942Z,1.10
2018-01-02T15:14:57.461Z,2.53
2018-01-02T15:17:24.977Z,1.60
2018-01-02T15:19:52.513Z,1.50
2018-01-02T15:22:20.033Z,1.23
2018-01-02T15:24:47.571Z,1.80
2018-01-02T15:27:15.858Z,1.80
2018-01-02T15:29:43.984Z,1.60
2018-01-02T15:32:11.568Z,1.23
2018-01-02T15:34:39.107Z,1.30
2018-01-02T15:37:06.622Z,1.70
2018-01-02T15:39:34.200Z,1.33
2018-01-02T15:42:01.726Z,1.60
2018-01-02T15:44:30.045Z,1.50
2018-01-02T15:46:57.616Z,2.70
2018-01-02T15:49:25.172Z,1.13
2018-01-02T15:51:52.737Z,1.57
2018-01-02T15:54:20.262Z,2.17
2018-01-02T15:56:47.807Z,1.90
2018-01-02T15:59:16.085Z,1.73
2018-01-02T16:01:43.663Z,1.70
2018-01-02T16:04:11.177Z,3.57
2018-01-02T16:06:38.760Z,5.10
2018-01-02T16:09:07.092Z,3.13
2018-01-02T16:11:34.676Z,2.90
2018-01-02T16:14:02.199Z,2.17
2018-01-02T16:16:29.757Z,3.23
2018-01-02T16:18:57.273Z,3.63
2018-01-02T16:21:25.554Z,4.23
2018-01-02T16:23:53.909Z,2.20
2018-01-02T16:26:21.472Z,1.53
2018-01-02T16:28:49.019Z,1.90
2018-01-02T16:31:16.588Z,1.50
2018-01-02T16:33:44.121Z,1.50
2018-01-02T16:36:11.687Z,1.17
2018-01-02T16:38:39.272Z,1.40
2018-01-02T16:41:06.848Z,1.90
2018-01-02T16:43:35.154Z,1.53
2018-01-02T16:46:02.734Z,1.43
2018-01-02T16:48:30.320Z,3.37
2018-01-02T16:50:57.888Z,3.00
2018-01-02T16:53:25.461Z,1.80
2018-01-02T16:55:53.041Z,1.63
2018-01-02T16:58:20.598Z,2.13
2018-01-02T17:00:48.902Z,2.47
2018-01-02T17:03:16.640Z,2.20
2018-01-02T17:05:44.268Z,2.13
2018-01-02T17:08:11.853Z,2.60
2018-01-02T17:10:39.442Z,2.90
2018-01-02T17:13:07.055Z,3.40
2018-01-02T17:15:34.651Z,2.90
2018-01-02T17:18:02.984Z,3.00
2018-01-02T17:20:31.368Z,2.78
2018-01-02T17:22:58.941Z,2.60
2018-01-02T17:25:26.513Z,2.50
2018-01-02T17:27:54.097Z,2.53
2018-01-02T17:30:22.373Z,3.13
2018-01-02T17:32:49.970Z,3.40
2018-01-02T17:35:17.534Z,6.33
2018-01-02T17:37:45.112Z,6.70
2018-01-02T17:40:12.676Z,3.87
2018-01-02T17:42:40.222Z,3.00
2018-01-02T17:45:07.798Z,4.33
2018-01-02T17:47:35.426Z,3.17
2018-01-02T17:50:02.986Z,3.17
2018-01-02T17:52:30.573Z,2.67
2018-01-02T17:54:58.091Z,2.87
2018-01-02T17:57:25.702Z,2.40
2018-01-02T17:59:53.289Z,2.63
2018-01-02T18:02:21.629Z,3.00
2018-01-02T18:04:49.221Z,4.18
2018-01-02T18:07:17.561Z,5.50
2018-01-02T18:09:45.096Z,4.50
2018-01-02T18:12:12.655Z,3.90
2018-01-02T18:14:40.193Z,3.20
2018-01-02T18:17:08.533Z,2.57
2018-01-02T18:19:36.122Z,3.72
2018-01-02T18:22:04.462Z,2.60
2018-01-02T18:24:32.053Z,3.37
2018-01-02T18:26:59.621Z,2.10
2018-01-02T18:29:27.993Z,2.60
2018-01-02T18:31:55.565Z,2.33
2018-01-02T18:34:23.905Z,1.90
2018-01-02T18:36:51.492Z,2.23
2018-01-02T18:39:19.057Z,1.93
2018-01-02T18:41:46.645Z,2.37
2018-01-02T18:44:14.221Z,2.60
2018-01-02T18:46:41.818Z,2.73
2018-01-02T18:49:09.388Z,3.13
2018-01-02T18:51:36.984Z,1.95
2018-01-02T18:54:05.324Z,3.00
2018-01-02T18:56:32.918Z,2.77
2018-01-02T18:59:01.202Z,3.20
2018-01-02T19:01:29.549Z,2.37
2018-01-02T19:03:57.130Z,2.20
2018-01-02T19:06:25.497Z,2.50
2018-01-02T19:08:53.022Z,2.93
2018-01-02T19:11:20.546Z,2.97
2018-01-02T19:13:48.077Z,2.37
2018-01-02T19:16:15.601Z,3.53
2018-01-02T19:18:43.190Z,2.43
2018-01-02T19:21:10.706Z,2.63
2018-01-02T19:23:38.245Z,2.62
2018-01-02T19:26:06.588Z,2.93
2018-01-02T19:28:34.197Z,3.53
2018-01-02T19:31:01.778Z,2.50
2018-01-02T19:33:29.366Z,2.37
2018-01-02T19:35:56.938Z,2.50
2018-01-02T19:38:24.524Z,2.63
2018-01-02T19:40:52.873Z,2.80
2018-01-02T19:43:20.440Z,3.17
2018-01-02T19:45:48.029Z,2.50
2018-01-02T19:48:15.598Z,2.30
2018-01-02T19:50:43.192Z,2.72
2018-01-02T19:53:10.761Z,3.33
2018-01-02T19:55:38.356Z,2.67
2018-01-02T19:58:06.692Z,2.50
2018-01-02T20:00:34.274Z,3.00
2018-01-02T20:03:01.840Z,3.37
2018-01-02T20:05:29.438Z,4.73
2018-01-02T20:07:57.010Z,2.87
2018-01-02T20:10:24.611Z,3.60
2018-01-02T20:12:52.181Z,3.27
2018-01-02T20:15:19.744Z,2.57
2018-01-02T20:17:47.341Z,3.60
2018-01-02T20:20:14.916Z,2.20
2018-01-02T20:22:42.511Z,3.43
2018-01-02T20:25:10.077Z,5.83
2018-01-02T20:27:37.670Z,4.00
2018-01-02T20:30:06.012Z,3.03
2018-01-02T20:32:33.610Z,2.77
2018-01-02T20:35:01.953Z,3.00
2018-01-02T20:37:29.544Z,4.33
2018-01-02T20:39:57.878Z,3.27
2018-01-02T20:42:25.486Z,3.20
2018-01-02T20:44:53.825Z,3.53
2018-01-02T20:47:21.397Z,3.03
2018-01-02T20:49:48.989Z,3.40
2018-01-02T20:52:17.320Z,2.80
2018-01-02T20:54:44.901Z,3.33
2018-01-02T20:57:12.481Z,3.17
2018-01-02T20:59:40.070Z,3.17
2018-01-02T21:02:07.642Z,2.80
2018-01-02T21:04:35.236Z,3.30
2018-01-02T21:07:02.800Z,3.10
2018-01-02T21:09:30.386Z,2.53
2018-01-02T21:11:58.726Z,3.17
2018-01-02T21:14:26.315Z,4.13
2018-01-02T21:16:53.886Z,3.10
2018-01-02T21:19:22.245Z,3.37
2018-01-02T21:21:49.882Z,2.77
2018-01-02T21:24:17.446Z,3.60
2018-01-02T21:26:45.040Z,2.90
2018-01-02T21:29:12.613Z,3.40
2018-01-02T21:31:40.986Z,3.70
2018-01-02T21:34:08.577Z,4.07
2018-01-02T21:36:36.173Z,4.40
2018-01-02T21:39:03.742Z,3.67
2018-01-02T21:41:31.333Z,3.40
2018-01-02T21:43:59.678Z,4.73
2018-01-02T21:46:27.272Z,3.80
2018-01-02T21:48:54.843Z,3.97
2018-01-02T21:51:23.208Z,3.90
2018-01-02T21:53:50.778Z,3.83
2018-01-02T21:56:19.115Z,3.80
2018-01-02T21:58:46.713Z,4.60
2018-01-02T22:01:15.061Z,5.30
2018-01-02T22:03:42.657Z,4.27
2018-01-02T22:06:10.997Z,3.77
2018-01-02T22:08:38.590Z,3.60
2018-01-02T22:11:06.936Z,3.93
2018-01-02T22:13:34.520Z,3.63
2018-01-02T22:16:02.085Z,2.90
2018-01-02T22:18:29.674Z,4.23
2018-01-02T22:20:58.013Z,3.57
2018-01-02T22:23:26.374Z,4.20
2018-01-02T22:25:53.948Z,4.15
2018-01-02T22:28:21.521Z,3.97
2018-01-02T22:30:49.115Z,4.83
2018-01-02T22:33:17.452Z,3.80
2018-01-02T22:35:45.049Z,3.20
2018-01-02T22:38:12.621Z,4.27
2018-01-02T22:40:40.213Z,3.43
2018-01-02T22:43:07.778Z,3.13
2018-01-02T22:45:35.372Z,4.13
2018-01-02T22:48:02.942Z,3.70
2018-01-02T22:50:30.546Z,2.73
2018-01-02T22:52:58.136Z,3.07
2018-01-02T22:55:25.714Z,3.00
2018-01-02T22:57:53.305Z,4.13
2018-01-02T23:00:21.638Z,3.83
2018-01-02T23:02:49.233Z,3.75
2018-01-02T23:05:17.560Z,2.40
2018-01-02T23:07:45.159Z,2.85
2018-01-02T23:10:12.741Z,3.43
2018-01-02T23:12:41.093Z,2.30
2018-01-02T23:15:08.661Z,2.30
2018-01-02T23:17:36.257Z,2.30
2018-01-02T23:20:03.826Z,2.30
2018-01-02T23:22:31.422Z,2.33
2018-01-02T23:24:58.989Z,2.60
2018-01-02T23:27:26.560Z,2.57
2018-01-02T23:29:54.140Z,2.33
2018-01-02T23:32:22.478Z,2.23
2018-01-02T23:34:50.092Z,2.20
2018-01-02T23:37:18.425Z,2.40
2018-01-02T23:39:46.048Z,2.13
2018-01-02T23:42:13.627Z,2.53
2018-01-02T23:44:41.203Z,1.73
2018-01-02T23:47:08.760Z,1.90
2018-01-02T23:49:36.348Z,2.45
2018-01-02T23:52:03.921Z,2.33
2018-01-02T23:54:32.263Z,1.73
2018-01-02T23:56:59.823Z,3.08
2018-01-02T23:59:27.425Z,2.58
